sensor_id;sensor_type;location;lat;lon;timestamp;temperature;humidity
65396;HTU21D;52004;45.136;39.010;2023-02-28T00:00:24;14.33;47.89
65396;HTU21D;52004;45.136;39.010;2023-02-28T00:02:50;14.32;47.93
65396;HTU21D;52004;45.136;39.010;2023-02-28T00:05:17;14.33;47.92
65396;HTU21D;52004;45.136;39.010;2023-02-28T00:07:43;14.33;47.93
65396;HTU21D;52004;45.136;39.010;2023-02-28T00:10:11;14.32;47.95
65396;HTU21D;52004;45.136;39.010;2023-02-28T00:12:37;14.32;47.97
65396;HTU21D;52004;45.136;39.010;2023-02-28T00:15:09;14.30;47.97
65396;HTU21D;52004;45.136;39.010;2023-02-28T00:17:36;14.29;47.99
65396;HTU21D;52004;45.136;39.010;2023-02-28T00:20:02;14.29;47.97
65396;HTU21D;52004;45.136;39.010;2023-02-28T00:22:30;14.28;47.97
65396;HTU21D;52004;45.136;39.010;2023-02-28T00:24:56;14.28;47.99
65396;HTU21D;52004;45.136;39.010;2023-02-28T00:27:22;0.00;47.96
65396;HTU21D;52004;45.136;39.010;2023-02-28T00:29:48;14.26;47.93
65396;HTU21D;52004;45.136;39.010;2023-02-28T00:32:13;14.25;47.90
65396;HTU21D;52004;45.136;39.010;2023-02-28T00:34:39;14.22;47.88
65396;HTU21D;52004;45.136;39.010;2023-02-28T00:37:06;14.17;47.88
65396;HTU21D;52004;45.136;39.010;2023-02-28T00:39:33;14.12;47.91
65396;HTU21D;52004;45.136;39.010;2023-02-28T00:41:59;14.08;47.94
65396;HTU21D;52004;45.136;39.010;2023-02-28T00:44:25;14.01;47.98
65396;HTU21D;52004;45.136;39.010;2023-02-28T00:46:52;13.96;48.02
65396;HTU21D;52004;45.136;39.010;2023-02-28T00:49:23;13.91;48.05
65396;HTU21D;52004;45.136;39.010;2023-02-28T00:51:50;13.88;48.10
65396;HTU21D;52004;45.136;39.010;2023-02-28T00:54:16;13.84;48.11
65396;HTU21D;52004;45.136;39.010;2023-02-28T00:56:42;13.79;48.15
65396;HTU21D;52004;45.136;39.010;2023-02-28T00:59:08;13.76;48.18
65396;HTU21D;52004;45.136;39.010;2023-02-28T01:01:34;13.73;48.22
65396;HTU21D;52004;45.136;39.010;2023-02-28T01:04:00;13.68;48.24
65396;HTU21D;52004;45.136;39.010;2023-02-28T01:06:26;13.65;48.27
65396;HTU21D;52004;45.136;39.010;2023-02-28T01:08:52;13.62;48.28
65396;HTU21D;52004;45.136;39.010;2023-02-28T01:11:18;13.60;48.30
65396;HTU21D;52004;45.136;39.010;2023-02-28T01:13:44;13.55;48.31
65396;HTU21D;52004;45.136;39.010;2023-02-28T01:16:11;13.54;48.33
65396;HTU21D;52004;45.136;39.010;2023-02-28T01:18:37;13.50;48.35
65396;HTU21D;52004;45.136;39.010;2023-02-28T01:21:08;13.46;48.44
65396;HTU21D;52004;45.136;39.010;2023-02-28T01:23:34;13.46;48.44
65396;HTU21D;52004;45.136;39.010;2023-02-28T01:26:15;13.44;48.50
65396;HTU21D;52004;45.136;39.010;2023-02-28T01:28:42;13.41;48.54
65396;HTU21D;52004;45.136;39.010;2023-02-28T01:31:08;13.40;48.56
65396;HTU21D;52004;45.136;39.010;2023-02-28T01:33:36;13.39;48.56
65396;HTU21D;52004;45.136;39.010;2023-02-28T01:36:06;13.40;48.57
65396;HTU21D;52004;45.136;39.010;2023-02-28T01:38:32;13.38;48.57
65396;HTU21D;52004;45.136;39.010;2023-02-28T01:40:58;13.38;48.60
65396;HTU21D;52004;45.136;39.010;2023-02-28T01:43:26;13.35;48.60
65396;HTU21D;52004;45.136;39.010;2023-02-28T01:45:54;13.35;48.63
65396;HTU21D;52004;45.136;39.010;2023-02-28T01:48:31;13.33;48.63
65396;HTU21D;52004;45.136;39.010;2023-02-28T01:50:59;13.32;48.65
65396;HTU21D;52004;45.136;39.010;2023-02-28T01:53:29;13.30;48.67
65396;HTU21D;52004;45.136;39.010;2023-02-28T01:55:57;13.30;48.69
65396;HTU21D;52004;45.136;39.010;2023-02-28T01:58:23;13.29;48.70
65396;HTU21D;52004;45.136;39.010;2023-02-28T02:00:49;13.26;48.72
65396;HTU21D;52004;45.136;39.010;2023-02-28T02:03:16;13.26;48.72
65396;HTU21D;52004;45.136;39.010;2023-02-28T02:05:46;13.27;48.72
65396;HTU21D;52004;45.136;39.010;2023-02-28T02:08:15;13.26;48.73
65396;HTU21D;52004;45.136;39.010;2023-02-28T02:18:30;13.19;48.77
65396;HTU21D;52004;45.136;39.010;2023-02-28T02:26:16;13.16;48.79
65396;HTU21D;52004;45.136;39.010;2023-02-28T02:31:25;13.11;48.84
65396;HTU21D;52004;45.136;39.010;2023-02-28T02:39:14;13.06;48.88
65396;HTU21D;52004;45.136;39.010;2023-02-28T02:41:45;13.04;48.87
65396;HTU21D;52004;45.136;39.010;2023-02-28T02:46:45;13.00;48.89
65396;HTU21D;52004;45.136;39.010;2023-02-28T02:49:13;12.95;48.87
65396;HTU21D;52004;45.136;39.010;2023-02-28T02:51:40;12.90;48.92
65396;HTU21D;52004;45.136;39.010;2023-02-28T02:54:23;12.88;48.95
65396;HTU21D;52004;45.136;39.010;2023-02-28T02:56:55;12.80;48.99
65396;HTU21D;52004;45.136;39.010;2023-02-28T02:59:23;12.77;49.05
65396;HTU21D;52004;45.136;39.010;2023-02-28T03:01:55;12.73;49.08
65396;HTU21D;52004;45.136;39.010;2023-02-28T03:04:22;12.69;49.12
65396;HTU21D;52004;45.136;39.010;2023-02-28T03:06:50;12.64;49.18
65396;HTU21D;52004;45.136;39.010;2023-02-28T03:09:21;12.58;49.21
65396;HTU21D;52004;45.136;39.010;2023-02-28T03:11:47;12.56;49.24
65396;HTU21D;52004;45.136;39.010;2023-02-28T03:16:56;12.49;49.27
65396;HTU21D;52004;45.136;39.010;2023-02-28T03:22:04;12.42;49.28
65396;HTU21D;52004;45.136;39.010;2023-02-28T03:24:34;12.37;49.30
65396;HTU21D;52004;45.136;39.010;2023-02-28T03:27:08;12.33;49.32
65396;HTU21D;52004;45.136;39.010;2023-02-28T03:29:39;0.00;49.34
65396;HTU21D;52004;45.136;39.010;2023-02-28T03:32:17;12.28;49.35
65396;HTU21D;52004;45.136;39.010;2023-02-28T03:34:49;12.20;49.34
65396;HTU21D;52004;45.136;39.010;2023-02-28T03:37:18;12.15;49.40
65396;HTU21D;52004;45.136;39.010;2023-02-28T03:39:53;12.08;49.44
65396;HTU21D;52004;45.136;39.010;2023-02-28T03:42:22;12.00;49.53
65396;HTU21D;52004;45.136;39.010;2023-02-28T03:44:51;11.92;49.60
65396;HTU21D;52004;45.136;39.010;2023-02-28T03:47:25;11.86;49.66
65396;HTU21D;52004;45.136;39.010;2023-02-28T03:52:19;11.84;49.71
65396;HTU21D;52004;45.136;39.010;2023-02-28T03:54:50;11.83;49.74
65396;HTU21D;52004;45.136;39.010;2023-02-28T03:57:26;11.83;49.75
65396;HTU21D;52004;45.136;39.010;2023-02-28T03:59:55;11.81;49.81
65396;HTU21D;52004;45.136;39.010;2023-02-28T04:02:22;11.82;49.87
65396;HTU21D;52004;45.136;39.010;2023-02-28T04:04:48;11.85;49.91
65396;HTU21D;52004;45.136;39.010;2023-02-28T04:07:14;0.00;49.91
65396;HTU21D;52004;45.136;39.010;2023-02-28T04:09:39;11.91;49.91
65396;HTU21D;52004;45.136;39.010;2023-02-28T04:12:05;11.96;49.92
65396;HTU21D;52004;45.136;39.010;2023-02-28T04:14:31;12.02;49.89
65396;HTU21D;52004;45.136;39.010;2023-02-28T04:16:57;12.06;49.89
65396;HTU21D;52004;45.136;39.010;2023-02-28T04:19:23;12.12;49.92
65396;HTU21D;52004;45.136;39.010;2023-02-28T04:21:50;12.17;49.92
65396;HTU21D;52004;45.136;39.010;2023-02-28T04:24:17;12.23;49.92
65396;HTU21D;52004;45.136;39.010;2023-02-28T04:26:44;12.29;49.89
65396;HTU21D;52004;45.136;39.010;2023-02-28T04:29:11;12.34;49.87
65396;HTU21D;52004;45.136;39.010;2023-02-28T04:31:37;12.38;49.87
65396;HTU21D;52004;45.136;39.010;2023-02-28T04:34:03;12.45;49.89
65396;HTU21D;52004;45.136;39.010;2023-02-28T04:36:29;12.50;49.86
65396;HTU21D;52004;45.136;39.010;2023-02-28T04:38:55;12.56;49.83
65396;HTU21D;52004;45.136;39.010;2023-02-28T04:41:21;12.61;49.79
65396;HTU21D;52004;45.136;39.010;2023-02-28T04:43:48;12.65;49.76
65396;HTU21D;52004;45.136;39.010;2023-02-28T04:46:13;12.71;49.76
65396;HTU21D;52004;45.136;39.010;2023-02-28T04:48:39;12.73;49.77
65396;HTU21D;52004;45.136;39.010;2023-02-28T04:51:10;12.77;49.79
65396;HTU21D;52004;45.136;39.010;2023-02-28T04:53:37;12.81;49.79
65396;HTU21D;52004;45.136;39.010;2023-02-28T04:56:04;0.00;49.76
65396;HTU21D;52004;45.136;39.010;2023-02-28T04:58:31;12.91;49.77
65396;HTU21D;52004;45.136;39.010;2023-02-28T05:01:02;0.00;49.77
65396;HTU21D;52004;45.136;39.010;2023-02-28T05:03:28;13.01;49.78
65396;HTU21D;52004;45.136;39.010;2023-02-28T05:05:53;13.07;49.75
65396;HTU21D;52004;45.136;39.010;2023-02-28T05:08:19;13.12;49.74
65396;HTU21D;52004;45.136;39.010;2023-02-28T05:10:45;13.18;49.74
65396;HTU21D;52004;45.136;39.010;2023-02-28T05:13:11;13.23;49.73
65396;HTU21D;52004;45.136;39.010;2023-02-28T05:15:37;13.29;49.72
65396;HTU21D;52004;45.136;39.010;2023-02-28T05:18:03;0.00;49.70
65396;HTU21D;52004;45.136;39.010;2023-02-28T05:20:29;13.38;49.70
65396;HTU21D;52004;45.136;39.010;2023-02-28T05:22:55;13.45;49.72
65396;HTU21D;52004;45.136;39.010;2023-02-28T05:25:22;13.50;49.72
65396;HTU21D;52004;45.136;39.010;2023-02-28T05:27:48;13.56;49.71
65396;HTU21D;52004;45.136;39.010;2023-02-28T05:30:14;13.65;49.71
65396;HTU21D;52004;45.136;39.010;2023-02-28T05:32:41;13.71;49.70
65396;HTU21D;52004;45.136;39.010;2023-02-28T05:35:10;0.00;49.69
65396;HTU21D;52004;45.136;39.010;2023-02-28T05:37:36;0.00;49.67
65396;HTU21D;52004;45.136;39.010;2023-02-28T05:40:03;13.92;49.61
65396;HTU21D;52004;45.136;39.010;2023-02-28T05:42:31;13.97;49.66
65396;HTU21D;52004;45.136;39.010;2023-02-28T05:44:57;14.06;49.66
65396;HTU21D;52004;45.136;39.010;2023-02-28T05:47:23;14.12;49.60
65396;HTU21D;52004;45.136;39.010;2023-02-28T05:49:49;14.19;49.58
65396;HTU21D;52004;45.136;39.010;2023-02-28T05:52:15;14.23;49.51
65396;HTU21D;52004;45.136;39.010;2023-02-28T05:54:41;14.22;49.43
65396;HTU21D;52004;45.136;39.010;2023-02-28T05:57:07;14.20;49.41
65396;HTU21D;52004;45.136;39.010;2023-02-28T05:59:33;14.15;49.40
65396;HTU21D;52004;45.136;39.010;2023-02-28T06:01:58;14.11;49.40
65396;HTU21D;52004;45.136;39.010;2023-02-28T06:04:24;14.05;49.47
65396;HTU21D;52004;45.136;39.010;2023-02-28T06:06:50;14.00;49.52
65396;HTU21D;52004;45.136;39.010;2023-02-28T06:09:17;13.98;49.67
65396;HTU21D;52004;45.136;39.010;2023-02-28T06:11:43;14.06;49.85
65396;HTU21D;52004;45.136;39.010;2023-02-28T06:14:13;14.21;49.87
65396;HTU21D;52004;45.136;39.010;2023-02-28T06:16:40;14.41;49.95
65396;HTU21D;52004;45.136;39.010;2023-02-28T06:19:05;14.60;50.03
65396;HTU21D;52004;45.136;39.010;2023-02-28T06:21:31;14.84;50.13
65396;HTU21D;52004;45.136;39.010;2023-02-28T06:23:57;15.07;50.12
65396;HTU21D;52004;45.136;39.010;2023-02-28T06:26:23;0.00;50.00
65396;HTU21D;52004;45.136;39.010;2023-02-28T06:28:49;0.00;49.78
65396;HTU21D;52004;45.136;39.010;2023-02-28T06:31:16;15.41;49.56
65396;HTU21D;52004;45.136;39.010;2023-02-28T06:33:42;15.39;49.50
65396;HTU21D;52004;45.136;39.010;2023-02-28T06:36:08;15.40;49.53
65396;HTU21D;52004;45.136;39.010;2023-02-28T06:38:34;15.43;49.56
65396;HTU21D;52004;45.136;39.010;2023-02-28T06:41:01;15.47;49.72
65396;HTU21D;52004;45.136;39.010;2023-02-28T06:43:31;15.52;49.66
65396;HTU21D;52004;45.136;39.010;2023-02-28T06:45:58;15.53;49.56
65396;HTU21D;52004;45.136;39.010;2023-02-28T06:48:25;15.53;49.71
65396;HTU21D;52004;45.136;39.010;2023-02-28T06:50:51;15.53;49.74
65396;HTU21D;52004;45.136;39.010;2023-02-28T06:53:17;15.55;49.71
65396;HTU21D;52004;45.136;39.010;2023-02-28T06:55:43;15.63;49.92
65396;HTU21D;52004;45.136;39.010;2023-02-28T06:58:09;15.80;50.11
65396;HTU21D;52004;45.136;39.010;2023-02-28T07:00:42;15.84;49.82
65396;HTU21D;52004;45.136;39.010;2023-02-28T07:03:08;15.87;49.80
65396;HTU21D;52004;45.136;39.010;2023-02-28T07:05:35;0.00;49.80
65396;HTU21D;52004;45.136;39.010;2023-02-28T07:08:01;15.95;49.70
65396;HTU21D;52004;45.136;39.010;2023-02-28T07:10:28;15.93;49.68
65396;HTU21D;52004;45.136;39.010;2023-02-28T07:12:54;15.93;49.66
65396;HTU21D;52004;45.136;39.010;2023-02-28T07:15:20;15.92;49.66
65396;HTU21D;52004;45.136;39.010;2023-02-28T07:17:46;15.93;49.80
65396;HTU21D;52004;45.136;39.010;2023-02-28T07:20:12;15.97;49.79
65396;HTU21D;52004;45.136;39.010;2023-02-28T07:22:38;15.96;49.73
65396;HTU21D;52004;45.136;39.010;2023-02-28T07:25:04;15.91;49.67
65396;HTU21D;52004;45.136;39.010;2023-02-28T07:27:30;15.91;49.73
65396;HTU21D;52004;45.136;39.010;2023-02-28T07:29:56;15.88;49.74
65396;HTU21D;52004;45.136;39.010;2023-02-28T07:32:22;15.92;49.94
65396;HTU21D;52004;45.136;39.010;2023-02-28T07:34:48;15.99;50.05
65396;HTU21D;52004;45.136;39.010;2023-02-28T07:37:14;16.01;49.98
65396;HTU21D;52004;45.136;39.010;2023-02-28T07:39:40;16.00;49.89
65396;HTU21D;52004;45.136;39.010;2023-02-28T07:42:07;15.97;49.86
65396;HTU21D;52004;45.136;39.010;2023-02-28T07:44:38;15.93;49.94
65396;HTU21D;52004;45.136;39.010;2023-02-28T07:47:09;15.91;49.96
65396;HTU21D;52004;45.136;39.010;2023-02-28T07:49:38;15.88;49.95
65396;HTU21D;52004;45.136;39.010;2023-02-28T07:52:04;15.85;49.99
65396;HTU21D;52004;45.136;39.010;2023-02-28T07:54:31;15.78;49.99
65396;HTU21D;52004;45.136;39.010;2023-02-28T07:56:56;15.73;50.14
65396;HTU21D;52004;45.136;39.010;2023-02-28T07:59:22;0.00;50.27
65396;HTU21D;52004;45.136;39.010;2023-02-28T08:01:48;15.78;50.31
65396;HTU21D;52004;45.136;39.010;2023-02-28T08:04:18;15.81;50.42
65396;HTU21D;52004;45.136;39.010;2023-02-28T08:06:44;15.83;50.40
65396;HTU21D;52004;45.136;39.010;2023-02-28T08:09:10;15.83;50.37
65396;HTU21D;52004;45.136;39.010;2023-02-28T08:11:36;15.82;50.34
65396;HTU21D;52004;45.136;39.010;2023-02-28T08:14:02;15.78;50.35
65396;HTU21D;52004;45.136;39.010;2023-02-28T08:16:27;15.73;50.35
65396;HTU21D;52004;45.136;39.010;2023-02-28T08:18:53;15.67;50.41
65396;HTU21D;52004;45.136;39.010;2023-02-28T08:21:20;15.62;50.53
65396;HTU21D;52004;45.136;39.010;2023-02-28T08:23:50;15.62;50.71
65396;HTU21D;52004;45.136;39.010;2023-02-28T08:26:16;15.66;50.78
65396;HTU21D;52004;45.136;39.010;2023-02-28T08:28:43;15.70;50.82
65396;HTU21D;52004;45.136;39.010;2023-02-28T08:31:10;15.74;50.88
65396;HTU21D;52004;45.136;39.010;2023-02-28T08:33:36;15.80;50.95
65396;HTU21D;52004;45.136;39.010;2023-02-28T08:36:02;15.86;50.95
65396;HTU21D;52004;45.136;39.010;2023-02-28T08:38:28;15.90;50.88
65396;HTU21D;52004;45.136;39.010;2023-02-28T08:40:58;0.00;50.86
65396;HTU21D;52004;45.136;39.010;2023-02-28T08:43:24;15.90;51.01
65396;HTU21D;52004;45.136;39.010;2023-02-28T08:45:51;15.91;50.97
65396;HTU21D;52004;45.136;39.010;2023-02-28T08:48:17;15.90;50.93
65396;HTU21D;52004;45.136;39.010;2023-02-28T08:50:43;15.86;50.91
65396;HTU21D;52004;45.136;39.010;2023-02-28T08:53:09;15.78;51.01
65396;HTU21D;52004;45.136;39.010;2023-02-28T08:55:34;15.75;51.13
65396;HTU21D;52004;45.136;39.010;2023-02-28T08:58:00;15.74;51.16
65396;HTU21D;52004;45.136;39.010;2023-02-28T09:00:27;15.74;51.21
65396;HTU21D;52004;45.136;39.010;2023-02-28T09:02:53;15.72;51.24
65396;HTU21D;52004;45.136;39.010;2023-02-28T09:05:20;15.73;51.31
65396;HTU21D;52004;45.136;39.010;2023-02-28T09:07:45;15.78;51.49
65396;HTU21D;52004;45.136;39.010;2023-02-28T09:10:11;15.93;51.80
65396;HTU21D;52004;45.136;39.010;2023-02-28T09:12:37;16.03;51.70
65396;HTU21D;52004;45.136;39.010;2023-02-28T09:15:03;16.06;51.59
65396;HTU21D;52004;45.136;39.010;2023-02-28T09:17:29;16.15;51.78
65396;HTU21D;52004;45.136;39.010;2023-02-28T09:19:55;16.21;51.89
65396;HTU21D;52004;45.136;39.010;2023-02-28T09:22:22;16.27;51.89
65396;HTU21D;52004;45.136;39.010;2023-02-28T09:24:48;16.34;52.08
65396;HTU21D;52004;45.136;39.010;2023-02-28T09:27:13;16.42;52.00
65396;HTU21D;52004;45.136;39.010;2023-02-28T09:29:39;16.43;51.75
65396;HTU21D;52004;45.136;39.010;2023-02-28T09:32:05;0.00;51.58
65396;HTU21D;52004;45.136;39.010;2023-02-28T09:34:31;16.39;51.75
65396;HTU21D;52004;45.136;39.010;2023-02-28T09:36:57;16.39;51.67
65396;HTU21D;52004;45.136;39.010;2023-02-28T09:39:23;16.33;51.56
65396;HTU21D;52004;45.136;39.010;2023-02-28T09:41:50;16.27;51.72
65396;HTU21D;52004;45.136;39.010;2023-02-28T09:44:35;16.26;51.78
65396;HTU21D;52004;45.136;39.010;2023-02-28T09:47:07;16.24;51.79
65396;HTU21D;52004;45.136;39.010;2023-02-28T09:49:38;16.28;52.01
65396;HTU21D;52004;45.136;39.010;2023-02-28T09:52:09;16.30;51.88
65396;HTU21D;52004;45.136;39.010;2023-02-28T09:54:35;16.28;51.95
65396;HTU21D;52004;45.136;39.010;2023-02-28T10:02:25;16.12;51.82
65396;HTU21D;52004;45.136;39.010;2023-02-28T10:05:12;16.00;51.92
65396;HTU21D;52004;45.136;39.010;2023-02-28T10:07:54;16.01;51.97
65396;HTU21D;52004;45.136;39.010;2023-02-28T10:10:24;15.97;51.94
65396;HTU21D;52004;45.136;39.010;2023-02-28T10:12:53;15.91;52.04
65396;HTU21D;52004;45.136;39.010;2023-02-28T10:15:21;15.86;52.07
65396;HTU21D;52004;45.136;39.010;2023-02-28T10:18:13;15.81;52.13
65396;HTU21D;52004;45.136;39.010;2023-02-28T10:20:40;15.71;52.13
65396;HTU21D;52004;45.136;39.010;2023-02-28T10:25:34;15.71;52.75
65396;HTU21D;52004;45.136;39.010;2023-02-28T10:28:04;15.76;52.65
65396;HTU21D;52004;45.136;39.010;2023-02-28T10:30:31;15.71;52.57
65396;HTU21D;52004;45.136;39.010;2023-02-28T10:32:57;15.62;52.55
65396;HTU21D;52004;45.136;39.010;2023-02-28T10:35:24;15.55;52.57
65396;HTU21D;52004;45.136;39.010;2023-02-28T10:37:57;15.49;52.60
65396;HTU21D;52004;45.136;39.010;2023-02-28T10:42:55;15.39;52.65
65396;HTU21D;52004;45.136;39.010;2023-02-28T10:45:21;15.37;52.78
65396;HTU21D;52004;45.136;39.010;2023-02-28T10:47:51;15.41;52.91
65396;HTU21D;52004;45.136;39.010;2023-02-28T10:50:30;15.49;52.88
65396;HTU21D;52004;45.136;39.010;2023-02-28T10:55:36;15.52;52.72
65396;HTU21D;52004;45.136;39.010;2023-02-28T10:58:02;15.42;52.76
65396;HTU21D;52004;45.136;39.010;2023-02-28T11:00:36;0.00;52.84
65396;HTU21D;52004;45.136;39.010;2023-02-28T11:03:02;15.27;52.90
65396;HTU21D;52004;45.136;39.010;2023-02-28T11:05:47;15.29;53.06
65396;HTU21D;52004;45.136;39.010;2023-02-28T11:08:15;15.41;53.27
65396;HTU21D;52004;45.136;39.010;2023-02-28T11:10:48;15.54;53.34
65396;HTU21D;52004;45.136;39.010;2023-02-28T11:13:19;15.75;53.67
65396;HTU21D;52004;45.136;39.010;2023-02-28T11:15:55;16.01;53.81
65396;HTU21D;52004;45.136;39.010;2023-02-28T11:18:23;16.28;53.75
65396;HTU21D;52004;45.136;39.010;2023-02-28T11:20:50;16.47;53.43
65396;HTU21D;52004;45.136;39.010;2023-02-28T11:23:16;16.50;53.17
65396;HTU21D;52004;45.136;39.010;2023-02-28T11:25:47;16.52;52.97
65396;HTU21D;52004;45.136;39.010;2023-02-28T11:28:28;16.48;52.76
65396;HTU21D;52004;45.136;39.010;2023-02-28T11:31:02;16.40;52.79
65396;HTU21D;52004;45.136;39.010;2023-02-28T11:33:28;16.34;52.82
65396;HTU21D;52004;45.136;39.010;2023-02-28T11:36:08;16.29;52.83
65396;HTU21D;52004;45.136;39.010;2023-02-28T11:38:35;16.22;52.83
65396;HTU21D;52004;45.136;39.010;2023-02-28T11:41:16;0.00;52.97
65396;HTU21D;52004;45.136;39.010;2023-02-28T11:51:45;16.51;52.86
65396;HTU21D;52004;45.136;39.010;2023-02-28T11:54:18;16.48;52.89
65396;HTU21D;52004;45.136;39.010;2023-02-28T11:56:48;16.48;52.95
65396;HTU21D;52004;45.136;39.010;2023-02-28T12:07:03;16.74;53.13
65396;HTU21D;52004;45.136;39.010;2023-02-28T12:09:55;16.81;53.05
65396;HTU21D;52004;45.136;39.010;2023-02-28T12:17:50;16.66;52.98
65396;HTU21D;52004;45.136;39.010;2023-02-28T12:23:15;16.71;53.27
65396;HTU21D;52004;45.136;39.010;2023-02-28T12:25:55;16.76;53.24
65396;HTU21D;52004;45.136;39.010;2023-02-28T12:28:34;16.77;53.20
65396;HTU21D;52004;45.136;39.010;2023-02-28T12:31:09;0.00;53.19
65396;HTU21D;52004;45.136;39.010;2023-02-28T12:33:37;16.65;53.21
65396;HTU21D;52004;45.136;39.010;2023-02-28T12:36:05;16.56;53.06
65396;HTU21D;52004;45.136;39.010;2023-02-28T12:38:38;16.40;53.03
65396;HTU21D;52004;45.136;39.010;2023-02-28T12:43:37;15.99;53.24
65396;HTU21D;52004;45.136;39.010;2023-02-28T12:46:10;15.86;53.26
65396;HTU21D;52004;45.136;39.010;2023-02-28T12:48:52;15.77;53.30
65396;HTU21D;52004;45.136;39.010;2023-02-28T12:51:21;15.65;53.27
65396;HTU21D;52004;45.136;39.010;2023-02-28T12:53:50;15.51;53.27
65396;HTU21D;52004;45.136;39.010;2023-02-28T13:04:27;14.89;53.73
65396;HTU21D;52004;45.136;39.010;2023-02-28T13:09:24;14.81;53.84
65396;HTU21D;52004;45.136;39.010;2023-02-28T13:11:50;0.00;53.84
65396;HTU21D;52004;45.136;39.010;2023-02-28T13:17:31;14.65;53.93
65396;HTU21D;52004;45.136;39.010;2023-02-28T13:19:40;14.59;53.92
65396;HTU21D;52004;45.136;39.010;2023-02-28T13:22:16;14.56;53.91
65396;HTU21D;52004;45.136;39.010;2023-02-28T13:24:49;0.00;53.92
65396;HTU21D;52004;45.136;39.010;2023-02-28T13:29:50;14.36;53.98
65396;HTU21D;52004;45.136;39.010;2023-02-28T13:42:51;13.88;54.25
65396;HTU21D;52004;45.136;39.010;2023-02-28T13:47:28;13.58;54.40
65396;HTU21D;52004;45.136;39.010;2023-02-28T13:49:54;13.48;54.48
65396;HTU21D;52004;45.136;39.010;2023-02-28T13:52:43;13.38;54.54
65396;HTU21D;52004;45.136;39.010;2023-02-28T13:55:19;13.29;54.55
65396;HTU21D;52004;45.136;39.010;2023-02-28T14:00:34;13.10;54.73
65396;HTU21D;52004;45.136;39.010;2023-02-28T14:05:39;0.00;54.87
65396;HTU21D;52004;45.136;39.010;2023-02-28T14:08:11;12.81;54.90
65396;HTU21D;52004;45.136;39.010;2023-02-28T14:10:44;12.71;55.05
65396;HTU21D;52004;45.136;39.010;2023-02-28T14:15:56;12.50;55.15
65396;HTU21D;52004;45.136;39.010;2023-02-28T14:18:24;12.40;55.16
65396;HTU21D;52004;45.136;39.010;2023-02-28T14:21:25;12.30;55.23
65396;HTU21D;52004;45.136;39.010;2023-02-28T14:23:49;12.17;55.27
65396;HTU21D;52004;45.136;39.010;2023-02-28T14:31:51;11.78;55.58
65396;HTU21D;52004;45.136;39.010;2023-02-28T14:37:04;11.67;55.63
65396;HTU21D;52004;45.136;39.010;2023-02-28T14:39:31;11.58;55.69
65396;HTU21D;52004;45.136;39.010;2023-02-28T14:41:58;11.49;55.73
65396;HTU21D;52004;45.136;39.010;2023-02-28T14:44:28;11.41;55.81
65396;HTU21D;52004;45.136;39.010;2023-02-28T14:47:01;11.33;55.85
65396;HTU21D;52004;45.136;39.010;2023-02-28T14:49:34;11.26;55.92
65396;HTU21D;52004;45.136;39.010;2023-02-28T14:52:12;11.14;56.03
65396;HTU21D;52004;45.136;39.010;2023-02-28T14:54:40;11.02;56.14
65396;HTU21D;52004;45.136;39.010;2023-02-28T14:57:19;10.94;56.27
65396;HTU21D;52004;45.136;39.010;2023-02-28T14:59:45;10.83;56.38
65396;HTU21D;52004;45.136;39.010;2023-02-28T15:02:20;10.77;56.44
65396;HTU21D;52004;45.136;39.010;2023-02-28T15:04:56;10.72;56.45
65396;HTU21D;52004;45.136;39.010;2023-02-28T15:07:22;10.72;56.39
65396;HTU21D;52004;45.136;39.010;2023-02-28T15:10:07;10.67;56.45
65396;HTU21D;52004;45.136;39.010;2023-02-28T15:12:33;10.63;56.45
65396;HTU21D;52004;45.136;39.010;2023-02-28T15:14:59;10.53;56.52
65396;HTU21D;52004;45.136;39.010;2023-02-28T15:17:26;10.43;56.64
65396;HTU21D;52004;45.136;39.010;2023-02-28T15:19:52;10.36;56.74
65396;HTU21D;52004;45.136;39.010;2023-02-28T15:22:20;10.31;56.78
65396;HTU21D;52004;45.136;39.010;2023-02-28T15:24:50;10.29;56.77
65396;HTU21D;52004;45.136;39.010;2023-02-28T15:29:50;10.20;56.83
65396;HTU21D;52004;45.136;39.010;2023-02-28T15:34:48;10.13;56.90
65396;HTU21D;52004;45.136;39.010;2023-02-28T15:37:25;10.11;56.90
65396;HTU21D;52004;45.136;39.010;2023-02-28T15:39:52;10.09;56.90
65396;HTU21D;52004;45.136;39.010;2023-02-28T15:42:20;10.06;56.91
65396;HTU21D;52004;45.136;39.010;2023-02-28T15:44:47;9.98;56.95
65396;HTU21D;52004;45.136;39.010;2023-02-28T15:47:17;9.91;57.01
65396;HTU21D;52004;45.136;39.010;2023-02-28T15:49:45;9.83;57.10
65396;HTU21D;52004;45.136;39.010;2023-02-28T15:52:14;9.76;57.19
65396;HTU21D;52004;45.136;39.010;2023-02-28T15:54:41;9.71;57.18
65396;HTU21D;52004;45.136;39.010;2023-02-28T15:57:11;9.65;57.19
65396;HTU21D;52004;45.136;39.010;2023-02-28T15:59:38;9.60;57.22
65396;HTU21D;52004;45.136;39.010;2023-02-28T16:04:55;9.33;57.38
65396;HTU21D;52004;45.136;39.010;2023-02-28T16:07:22;9.23;57.49
65396;HTU21D;52004;45.136;39.010;2023-02-28T16:09:48;9.21;57.51
65396;HTU21D;52004;45.136;39.010;2023-02-28T16:12:14;9.19;57.45
65396;HTU21D;52004;45.136;39.010;2023-02-28T16:14:39;9.12;57.38
65396;HTU21D;52004;45.136;39.010;2023-02-28T16:17:06;0.00;57.41
65396;HTU21D;52004;45.136;39.010;2023-02-28T16:19:34;0.00;57.45
65396;HTU21D;52004;45.136;39.010;2023-02-28T16:22:00;8.90;57.50
65396;HTU21D;52004;45.136;39.010;2023-02-28T16:24:26;8.80;57.59
65396;HTU21D;52004;45.136;39.010;2023-02-28T16:26:53;8.71;57.73
65396;HTU21D;52004;45.136;39.010;2023-02-28T16:29:23;8.62;57.77
65396;HTU21D;52004;45.136;39.010;2023-02-28T16:31:50;8.53;57.84
65396;HTU21D;52004;45.136;39.010;2023-02-28T16:34:16;8.47;57.89
65396;HTU21D;52004;45.136;39.010;2023-02-28T16:36:42;8.39;57.98
65396;HTU21D;52004;45.136;39.010;2023-02-28T16:39:08;8.34;58.03
65396;HTU21D;52004;45.136;39.010;2023-02-28T16:41:34;8.33;58.03
65396;HTU21D;52004;45.136;39.010;2023-02-28T16:44:00;8.30;58.00
65396;HTU21D;52004;45.136;39.010;2023-02-28T16:46:44;8.22;58.05
65396;HTU21D;52004;45.136;39.010;2023-02-28T16:49:11;8.19;58.15
65396;HTU21D;52004;45.136;39.010;2023-02-28T16:51:38;8.21;58.12
65396;HTU21D;52004;45.136;39.010;2023-02-28T16:54:04;0.00;58.06
65396;HTU21D;52004;45.136;39.010;2023-02-28T16:56:30;8.19;58.11
65396;HTU21D;52004;45.136;39.010;2023-02-28T16:58:58;0.00;58.11
65396;HTU21D;52004;45.136;39.010;2023-02-28T17:01:27;8.15;58.08
65396;HTU21D;52004;45.136;39.010;2023-02-28T17:03:53;8.09;58.16
65396;HTU21D;52004;45.136;39.010;2023-02-28T17:06:23;8.07;58.16
65396;HTU21D;52004;45.136;39.010;2023-02-28T17:08:50;8.01;58.16
65396;HTU21D;52004;45.136;39.010;2023-02-28T17:11:16;7.93;58.26
65396;HTU21D;52004;45.136;39.010;2023-02-28T17:13:43;7.87;58.36
65396;HTU21D;52004;45.136;39.010;2023-02-28T17:18:41;7.83;58.52